createdAt,value
2019-04-22T00:01:40.467Z,101608.20
2019-04-22T00:04:55.035Z,101615.25
2019-04-22T00:08:21.005Z,101616.11
2019-04-22T00:11:26.027Z,101617.28
2019-04-22T00:14:23.844Z,101612.08
2019-04-22T00:17:38.612Z,101601.41
2019-04-22T00:20:43.881Z,101608.59
2019-04-22T00:23:47.835Z,101605.52
2019-04-22T00:26:50.138Z,101594.98
2019-04-22T00:30:09.172Z,101600.31
2019-04-22T00:33:08.055Z,101591.58
2019-04-22T00:36:17.823Z,101598.98
2019-04-22T00:39:22.000Z,101587.62
2019-04-22T00:42:28.941Z,101587.30
2019-04-22T00:45:33.140Z,101589.60
2019-04-22T00:48:43.041Z,101591.06
2019-04-22T00:52:05.183Z,101588.00
2019-04-22T00:54:54.438Z,101586.63
2019-04-22T00:57:54.666Z,101588.34
2019-04-22T01:01:02.252Z,101574.12
2019-04-22T01:04:14.351Z,101578.25
2019-04-22T01:07:11.429Z,101584.14
2019-04-22T01:10:19.008Z,101578.98
2019-04-22T01:13:25.156Z,101580.14
2019-04-22T01:16:29.802Z,101583.48
2019-04-22T01:19:47.146Z,101580.08
2019-04-22T01:22:40.606Z,101576.71
2019-04-22T01:25:46.386Z,101572.92
2019-04-22T01:28:46.445Z,101571.80
2019-04-22T01:31:41.606Z,101573.11
2019-04-22T01:35:00.637Z,101582.08
2019-04-22T01:38:11.985Z,101572.73
2019-04-22T01:41:22.997Z,101571.94
2019-04-22T01:47:38.031Z,101572.30
2019-04-22T01:50:36.851Z,101576.55
2019-04-22T01:53:50.436Z,101584.47
2019-04-22T01:56:53.973Z,101582.22
2019-04-22T01:59:45.817Z,101576.69
2019-04-22T02:03:05.561Z,101582.47
2019-04-22T02:06:07.578Z,101574.28
2019-04-22T02:09:21.155Z,101580.50
2019-04-22T02:12:20.009Z,101572.08
2019-04-22T02:15:23.334Z,101574.88
2019-04-22T02:18:31.905Z,101566.16
2019-04-22T02:21:35.440Z,101563.20
2019-04-22T02:24:46.234Z,101563.88
2019-04-22T02:27:51.473Z,101563.82
2019-04-22T02:40:09.214Z,101557.20
2019-04-22T02:43:33.975Z,101554.49
2019-04-22T02:49:30.114Z,101551.84
2019-04-22T02:55:40.812Z,101549.01
2019-04-22T03:02:09.965Z,101540.52
2019-04-22T03:05:19.475Z,101532.34
2019-04-22T03:14:26.296Z,101530.12
2019-04-22T03:17:30.875Z,101521.44
2019-04-22T03:20:29.157Z,101524.87
2019-04-22T03:23:47.567Z,101524.92
2019-04-22T03:26:39.047Z,101517.30
2019-04-22T03:33:23.511Z,101510.53
2019-04-22T03:42:46.768Z,101514.89
2019-04-22T03:45:58.761Z,101509.73
2019-04-22T03:49:03.806Z,101510.11
2019-04-22T03:52:07.314Z,101509.55
2019-04-22T03:55:15.168Z,101509.27
2019-04-22T03:57:58.467Z,101516.05
2019-04-22T04:01:22.998Z,101509.05
2019-04-22T04:07:46.119Z,101513.66
2019-04-22T04:10:35.377Z,101505.25
2019-04-22T04:13:35.935Z,101500.59
2019-04-22T04:16:47.703Z,101504.33
2019-04-22T04:23:05.660Z,101498.88
2019-04-22T04:25:57.280Z,101504.02
2019-04-22T04:35:23.943Z,101501.03
2019-04-22T04:38:20.795Z,101498.83
2019-04-22T04:47:57.827Z,101498.62
2019-04-22T04:50:54.764Z,101500.30
2019-04-22T04:54:13.411Z,101502.14
2019-04-22T04:57:17.409Z,101502.59
2019-04-22T05:06:12.992Z,101500.97
2019-04-22T05:12:35.521Z,101498.92
2019-04-22T05:15:26.996Z,101505.33
2019-04-22T05:18:37.292Z,101496.62
2019-04-22T05:21:39.644Z,101491.72
2019-04-22T05:24:47.859Z,101489.81
2019-04-22T05:27:45.358Z,101499.11
2019-04-22T05:30:47.634Z,101488.86
2019-04-22T05:34:01.240Z,101489.37
2019-04-22T05:37:05.284Z,101488.08
2019-04-22T05:40:10.330Z,101493.67
2019-04-22T05:43:11.058Z,101496.37
2019-04-22T05:46:20.748Z,101487.59
2019-04-22T05:52:25.600Z,101490.38
2019-04-22T05:55:36.290Z,101494.03
2019-04-22T05:58:41.513Z,101495.89
2019-04-22T06:01:55.054Z,101496.34
2019-04-22T06:04:54.960Z,101495.28
2019-04-22T06:07:53.809Z,101502.40
2019-04-22T06:10:58.121Z,101500.02
2019-04-22T06:14:01.903Z,101501.60
2019-04-22T06:17:20.485Z,101503.20
2019-04-22T06:20:15.883Z,101505.64
2019-04-22T06:26:40.630Z,101507.70
2019-04-22T06:29:33.516Z,101513.20
2019-04-22T06:32:42.215Z,101519.19
2019-04-22T06:35:54.517Z,101517.66
2019-04-22T06:38:59.075Z,101522.48
2019-04-22T06:42:01.066Z,101519.88
2019-04-22T06:45:04.147Z,101524.87
2019-04-22T06:48:13.109Z,101524.73
2019-04-22T06:51:12.380Z,101511.93
2019-04-22T06:54:21.700Z,101516.13
2019-04-22T06:57:25.215Z,101517.66
2019-04-22T07:00:32.444Z,101517.30
2019-04-22T07:03:52.347Z,101516.39
2019-04-22T07:06:48.083Z,101515.42
2019-04-22T07:12:53.915Z,101498.41
2019-04-22T07:15:59.532Z,101505.94
2019-04-22T07:19:09.233Z,101511.40
2019-04-22T07:25:15.860Z,101514.50
2019-04-22T07:28:20.563Z,101505.59
2019-04-22T07:31:27.254Z,101501.16
2019-04-22T07:47:08.375Z,101498.36
2019-04-22T07:50:09.847Z,101496.89
2019-04-22T07:53:05.359Z,101496.77
2019-04-22T07:56:16.235Z,101495.73
2019-04-22T07:59:22.461Z,101499.23
2019-04-22T08:02:18.859Z,101492.30
2019-04-22T08:05:37.837Z,101484.80
2019-04-22T08:08:38.904Z,101495.02
2019-04-22T08:14:45.634Z,101494.03
2019-04-22T08:20:59.688Z,101494.98
2019-04-22T08:24:06.313Z,101490.77
2019-04-22T08:27:11.944Z,101498.52
2019-04-22T08:30:21.982Z,101496.77
2019-04-22T08:33:21.708Z,101493.31
2019-04-22T08:36:26.033Z,101496.03
2019-04-22T08:39:32.546Z,101489.16
2019-04-22T08:42:53.333Z,101491.13
2019-04-22T08:48:57.354Z,101487.63
2019-04-22T08:52:01.446Z,101487.42
2019-04-22T08:55:11.335Z,101491.65
2019-04-22T08:58:25.583Z,101488.77
2019-04-22T09:04:16.394Z,101486.46
2019-04-22T09:07:31.855Z,101473.22
2019-04-22T09:10:37.812Z,101472.58
2019-04-22T09:13:43.352Z,101468.48
2019-04-22T09:16:48.583Z,101460.45
2019-04-22T09:19:55.941Z,101464.41
2019-04-22T09:23:03.996Z,101460.09
2019-04-22T09:26:01.338Z,101448.89
2019-04-22T09:29:16.170Z,101457.58
2019-04-22T09:35:30.488Z,101447.20
2019-04-22T09:41:33.737Z,101438.86
2019-04-22T09:44:40.338Z,101434.13
2019-04-22T09:47:49.219Z,101442.52
2019-04-22T09:50:47.905Z,101430.88
2019-04-22T09:54:00.756Z,101426.42
2019-04-22T09:56:56.506Z,101426.84
2019-04-22T10:03:13.901Z,101416.53
2019-04-22T10:06:24.766Z,101414.11
2019-04-22T10:12:32.152Z,101403.47
2019-04-22T10:15:32.355Z,101404.45
2019-04-22T10:18:39.146Z,101403.41
2019-04-22T10:21:57.273Z,101395.98
2019-04-22T10:24:55.405Z,101392.47
2019-04-22T10:28:01.849Z,101391.89
2019-04-22T10:31:00.396Z,101381.05
2019-04-22T10:33:58.463Z,101379.66
2019-04-22T10:36:54.322Z,101382.37
2019-04-22T10:39:58.784Z,101374.02
2019-04-22T10:42:59.464Z,101379.41
2019-04-22T10:46:04.159Z,101370.70
2019-04-22T10:49:08.444Z,101361.50
2019-04-22T10:52:12.945Z,101352.75
2019-04-22T10:55:17.319Z,101356.09
2019-04-22T10:58:22.784Z,101344.44
2019-04-22T11:01:27.567Z,101352.24
2019-04-22T11:04:32.252Z,101348.22
2019-04-22T11:07:44.308Z,101349.28
2019-04-22T11:10:54.249Z,101343.77
2019-04-22T11:13:47.695Z,101341.75
2019-04-22T11:16:51.471Z,101335.91
2019-04-22T11:25:54.964Z,101322.88
2019-04-22T11:28:59.354Z,101319.46
2019-04-22T11:32:04.257Z,101308.48
2019-04-22T11:35:09.886Z,101310.06
2019-04-22T11:38:15.005Z,101319.66
2019-04-22T11:41:19.469Z,101308.09
2019-04-22T11:44:23.599Z,101302.45
2019-04-22T11:47:27.515Z,101299.72
2019-04-22T11:50:31.952Z,101293.09
2019-04-22T11:53:36.708Z,101286.81
2019-04-22T11:56:41.115Z,101287.45
2019-04-22T11:59:45.080Z,101290.26
2019-04-22T12:02:49.364Z,101288.13
2019-04-22T12:05:53.082Z,101284.05
2019-04-22T12:08:57.554Z,101268.34
2019-04-22T12:12:03.414Z,101273.55
2019-04-22T12:15:08.531Z,101259.99
2019-04-22T12:18:15.293Z,101263.96
2019-04-22T12:21:19.449Z,101251.14
2019-04-22T12:24:24.964Z,101241.70
2019-04-22T12:27:30.056Z,101245.22
2019-04-22T12:30:35.250Z,101239.83
2019-04-22T12:33:39.446Z,101234.63
2019-04-22T12:36:44.846Z,101242.38
2019-04-22T12:39:52.981Z,101228.77
2019-04-22T12:42:55.412Z,101219.89
2019-04-22T12:46:00.403Z,101222.88
2019-04-22T12:49:04.606Z,101211.59
2019-04-22T12:52:10.452Z,101217.26
2019-04-22T12:55:17.312Z,101201.99
2019-04-22T12:58:20.422Z,101204.93
2019-04-22T13:01:24.687Z,101195.30
2019-04-22T13:04:30.048Z,101195.80
2019-04-22T13:07:33.963Z,101191.91
2019-04-22T13:10:48.647Z,101193.24
2019-04-22T13:13:44.957Z,101191.85
2019-04-22T13:16:49.260Z,101186.69
2019-04-22T13:19:54.086Z,101185.68
2019-04-22T13:22:59.579Z,101186.06
2019-04-22T13:26:03.371Z,101169.63
2019-04-22T13:29:07.516Z,101174.05
2019-04-22T13:32:13.011Z,101188.38
2019-04-22T13:35:22.062Z,101165.31
2019-04-22T13:38:27.040Z,101156.84
2019-04-22T13:41:39.988Z,101153.70
2019-04-22T13:44:37.695Z,101143.39
2019-04-22T13:48:06.872Z,101141.11
2019-04-22T13:51:15.083Z,101151.35
2019-04-22T13:57:19.672Z,101143.47
2019-04-22T14:00:05.702Z,101140.85
2019-04-22T14:03:47.058Z,101133.06
2019-04-22T14:06:50.845Z,101146.75
2019-04-22T14:09:55.994Z,101137.58
2019-04-22T14:13:02.007Z,101132.10
2019-04-22T14:16:06.817Z,101139.59
2019-04-22T14:19:11.890Z,101138.22
2019-04-22T14:22:16.025Z,101119.71
2019-04-22T14:25:20.817Z,101123.16
2019-04-22T14:28:26.560Z,101125.75
2019-04-22T14:31:30.810Z,101121.66
2019-04-22T14:34:36.255Z,101113.33
2019-04-22T14:37:40.376Z,101121.41
2019-04-22T14:40:45.456Z,101113.67
2019-04-22T14:44:45.125Z,101111.11
2019-04-22T14:47:19.958Z,101101.16
2019-04-22T14:50:22.313Z,101105.84
2019-04-22T14:53:25.897Z,101105.24
2019-04-22T14:56:13.731Z,101108.47
2019-04-22T14:59:18.874Z,101100.33
2019-04-22T15:02:23.681Z,101100.23
2019-04-22T15:05:28.224Z,101098.91
2019-04-22T15:08:32.982Z,101087.34
2019-04-22T15:11:52.591Z,101090.89
2019-04-22T15:14:43.601Z,101086.03
2019-04-22T15:17:54.652Z,101080.85
2019-04-22T15:21:02.736Z,101074.12
2019-04-22T15:24:27.350Z,101074.61
2019-04-22T15:27:31.388Z,101069.45
2019-04-22T15:30:35.582Z,101065.72
2019-04-22T15:33:39.636Z,101072.89
2019-04-22T15:36:44.441Z,101065.34
2019-04-22T15:39:49.756Z,101065.48
2019-04-22T15:42:55.016Z,101065.98
2019-04-22T15:46:02.354Z,101066.25
2019-04-22T15:49:06.367Z,101052.88
2019-04-22T15:52:12.527Z,101064.02
2019-04-22T15:55:18.758Z,101060.96
2019-04-22T15:58:23.823Z,101061.67
2019-04-22T16:01:33.648Z,101067.91
2019-04-22T16:04:34.713Z,101060.17
2019-04-22T16:07:40.042Z,101068.24
2019-04-22T16:10:44.156Z,101060.14
2019-04-22T16:13:48.383Z,101065.72
2019-04-22T16:16:54.589Z,101066.69
2019-04-22T16:19:59.410Z,101063.38
2019-04-22T16:23:32.164Z,101070.68
2019-04-22T16:26:58.198Z,101064.41
2019-04-22T16:30:03.417Z,101065.55
2019-04-22T16:33:07.965Z,101059.25
2019-04-22T16:36:13.018Z,101060.33
2019-04-22T16:39:18.509Z,101054.03
2019-04-22T16:42:31.647Z,101051.09
2019-04-22T16:45:27.761Z,101051.19
2019-04-22T16:48:31.722Z,101047.16
2019-04-22T16:51:38.221Z,101047.95
2019-04-22T16:54:42.189Z,101045.59
2019-04-22T16:57:46.358Z,101044.73
2019-04-22T17:00:50.199Z,101035.73
2019-04-22T17:04:06.818Z,101043.77
2019-04-22T17:07:13.968Z,101042.55
2019-04-22T17:10:18.008Z,101041.26
2019-04-22T17:13:26.494Z,101032.49
2019-04-22T17:16:28.462Z,101038.31
2019-04-22T17:19:33.319Z,101041.57
2019-04-22T17:22:37.719Z,101034.80
2019-04-22T17:25:42.629Z,101040.68
2019-04-22T17:28:46.603Z,101027.09
2019-04-22T17:31:58.453Z,101032.47
2019-04-22T17:34:57.266Z,101032.47
2019-04-22T17:38:10.124Z,101031.42
2019-04-22T17:41:21.206Z,101042.25
2019-04-22T17:47:52.178Z,101040.67
2019-04-22T17:51:16.063Z,101048.34
2019-04-22T17:54:26.918Z,101040.54
2019-04-22T17:57:17.901Z,101052.61
2019-04-22T18:00:21.212Z,101050.61
2019-04-22T18:03:17.570Z,101054.52
2019-04-22T18:06:42.657Z,101054.17
2019-04-22T18:10:14.093Z,101053.27
2019-04-22T18:12:53.539Z,101046.75
2019-04-22T18:15:51.492Z,101054.50
2019-04-22T18:18:56.870Z,101055.59
2019-04-22T18:21:51.687Z,101057.73
2019-04-22T18:24:58.250Z,101060.61
2019-04-22T18:31:13.683Z,101059.66
2019-04-22T18:34:16.959Z,101068.96
2019-04-22T18:37:23.718Z,101066.17
2019-04-22T18:40:31.056Z,101057.19
2019-04-22T18:43:42.441Z,101074.95
2019-04-22T18:46:42.717Z,101067.13
2019-04-22T18:49:46.089Z,101073.63
2019-04-22T18:53:03.242Z,101078.02
2019-04-22T18:56:16.367Z,101081.14
2019-04-22T18:59:09.075Z,101091.36
2019-04-22T19:02:09.057Z,101093.06
2019-04-22T19:05:23.566Z,101097.42
2019-04-22T19:08:36.977Z,101105.72
2019-04-22T19:11:53.915Z,101106.08
2019-04-22T19:14:58.987Z,101105.36
2019-04-22T19:18:01.763Z,101110.42
2019-04-22T19:21:02.755Z,101114.70
2019-04-22T19:24:00.343Z,101120.20
2019-04-22T19:27:09.249Z,101127.91
2019-04-22T19:30:16.571Z,101125.46
2019-04-22T19:33:23.595Z,101129.94
2019-04-22T19:36:26.107Z,101128.22
2019-04-22T19:39:29.833Z,101124.84
2019-04-22T19:42:46.136Z,101134.30
2019-04-22T19:45:42.986Z,101147.05
2019-04-22T19:48:53.075Z,101145.62
2019-04-22T19:52:05.675Z,101145.67
2019-04-22T19:55:01.846Z,101143.48
2019-04-22T19:58:13.164Z,101147.68
2019-04-22T20:01:37.005Z,101150.36
2019-04-22T20:04:55.330Z,101157.70
2019-04-22T20:07:49.702Z,101158.05
2019-04-22T20:11:03.951Z,101156.56
2019-04-22T20:14:10.972Z,101152.16
2019-04-22T20:17:07.972Z,101161.20
2019-04-22T20:20:26.431Z,101160.62
2019-04-22T20:23:20.470Z,101161.34
2019-04-22T20:26:23.487Z,101158.49
2019-04-22T20:29:37.763Z,101165.16
2019-04-22T20:32:37.337Z,101157.49
2019-04-22T20:35:46.571Z,101154.80
2019-04-22T20:38:49.473Z,101154.80
2019-04-22T20:42:05.579Z,101165.27
2019-04-22T20:45:05.713Z,101158.66
2019-04-22T20:48:00.202Z,101153.98
2019-04-22T20:51:17.139Z,101156.73
2019-04-22T20:54:19.315Z,101154.28
2019-04-22T20:57:26.275Z,101155.19
2019-04-22T21:00:29.389Z,101146.23
2019-04-22T21:03:27.411Z,101147.83
2019-04-22T21:06:44.274Z,101147.56
2019-04-22T21:09:52.405Z,101144.25
2019-04-22T21:12:41.814Z,101146.56
2019-04-22T21:16:06.265Z,101142.16
2019-04-22T21:19:04.403Z,101141.81
2019-04-22T21:22:19.384Z,101134.42
2019-04-22T21:25:11.328Z,101128.09
2019-04-22T21:28:21.513Z,101122.12
2019-04-22T21:31:30.724Z,101126.72
2019-04-22T21:34:32.282Z,101118.96
2019-04-22T21:37:43.198Z,101116.19
2019-04-22T21:40:42.782Z,101111.80
2019-04-22T21:43:52.653Z,101109.52
2019-04-22T21:47:03.348Z,101110.70
2019-04-22T21:50:21.546Z,101105.63
2019-04-22T21:53:14.552Z,101103.52
2019-04-22T21:56:35.257Z,101100.04
2019-04-22T21:59:19.172Z,101092.34
2019-04-22T22:05:28.416Z,101088.59
2019-04-22T22:08:40.234Z,101085.19
2019-04-22T22:11:46.786Z,101081.47
2019-04-22T22:14:51.547Z,101070.37
2019-04-22T22:17:55.515Z,101069.78
2019-04-22T22:21:19.389Z,101062.84
2019-04-22T22:24:10.132Z,101061.64
2019-04-22T22:27:14.618Z,101059.69
2019-04-22T22:30:40.049Z,101053.42
2019-04-22T22:33:24.235Z,101051.54
2019-04-22T22:36:27.128Z,101045.44
2019-04-22T22:39:29.804Z,101041.17
2019-04-22T22:42:29.064Z,101036.61
2019-04-22T22:45:37.006Z,101031.73
2019-04-22T22:49:03.199Z,101035.58
2019-04-22T22:52:16.680Z,101027.97
2019-04-22T22:55:06.872Z,101019.80
2019-04-22T22:58:11.474Z,101022.16
2019-04-22T23:01:14.980Z,101024.56
2019-04-22T23:04:30.647Z,101023.88
2019-04-22T23:07:46.326Z,101014.57
2019-04-22T23:10:45.385Z,101015.60
2019-04-22T23:13:42.806Z,101008.36
2019-04-22T23:16:33.954Z,101004.45
2019-04-22T23:19:33.673Z,101000.46
2019-04-22T23:22:58.964Z,101001.32
2019-04-22T23:25:59.706Z,101000.27
2019-04-22T23:29:07.210Z,100993.73
2019-04-22T23:32:17.240Z,100994.52
2019-04-22T23:35:36.987Z,100986.58
2019-04-22T23:38:54.935Z,100987.95
2019-04-22T23:42:17.989Z,100990.02
2019-04-22T23:45:03.825Z,100984.16
2019-04-22T23:47:49.903Z,100983.84
2019-04-22T23:51:10.766Z,100984.19
2019-04-22T23:54:13.173Z,100988.81
2019-04-22T23:57:15.472Z,100984.81
